Terminal Aerodrome Forecast
Issued by NWS

Current Version | Previous Version | Text Only | Print | Product List | Glossary On
Versions: 1 2 3 4 5 6 7 8 9 10 11 12 13 14 15 16
334
FTUS44 KTSA 231727
TAFFYV
TAF
KFYV 231727Z 2318/2418 32005KT P6SM SCT250
     FM240000 15002KT P6SM FEW250
     FM241500 18014G21KT P6SM SKC=

USA.gov is the U.S. government's official web portal to all federal, state and local government web resources and services.